Time;durP1;ratioP1;P1;durP2;ratioP2;P2;SDS_P1;SDS_P2;PMS_P1;PMS_P2;Temp;Humidity;BMP_temperature;BMP_pressure;BME280_temperature;BME280_humidity;BME280_pressure;Samples;Min_cycle;Max_cycle;Signal;HPM_P1;HPM_P2
2022/01/17 00:01:53;;;;;;;;;38.25;34.50;16.00;99.90;;;;;;5012458;28;12271;-46
2022/01/17 00:04:24;;;;;;;;;36.25;33.75;16.00;99.90;;;;;;5005268;28;11598;-47
2022/01/17 00:06:57;;;;;;;;;39.25;34.50;16.00;99.90;;;;;;5015953;28;11566;-49
2022/01/17 00:09:27;;;;;;;;;40.00;35.75;16.00;99.90;;;;;;5007833;28;11601;-48
2022/01/17 00:11:57;;;;;;;;;36.25;33.50;16.00;99.90;;;;;;5017197;28;11757;-46
2022/01/17 00:14:34;;;;;;;;;37.25;34.25;16.00;99.90;;;;;;5016730;28;11788;-47
2022/01/17 00:17:23;;;;;;;;;38.25;34.50;16.00;99.90;;;;;;5018777;28;11590;-45
2022/01/17 00:19:55;;;;;;;;;33.25;31.50;16.00;99.90;;;;;;5020837;28;11555;-46
2022/01/17 00:22:26;;;;;;;;;32.75;31.50;16.00;99.90;;;;;;5018524;28;11715;-48
2022/01/17 00:24:58;;;;;;;;;29.50;29.00;16.10;99.90;;;;;;5020179;28;11498;-48
2022/01/17 00:27:31;;;;;;;;;28.00;27.75;16.00;99.90;;;;;;5016597;28;11697;-49
2022/01/17 00:30:04;;;;;;;;;28.50;27.25;16.00;99.90;;;;;;5015523;28;11603;-47
2022/01/17 00:32:35;;;;;;;;;23.50;23.50;16.00;99.90;;;;;;5018541;28;11513;-46
2022/01/17 00:35:06;;;;;;;;;31.00;29.25;16.00;99.90;;;;;;5019497;28;12155;-49
2022/01/17 00:37:37;;;;;;;;;28.00;28.00;16.00;99.90;;;;;;5019513;28;11535;-45
2022/01/17 00:40:08;;;;;;;;;26.50;26.50;16.00;99.90;;;;;;5018945;28;11555;-47
2022/01/17 00:42:43;;;;;;;;;26.25;25.75;16.00;99.90;;;;;;5020053;28;11466;-44
2022/01/17 00:45:14;;;;;;;;;19.50;19.50;16.00;99.90;;;;;;5018178;28;11517;-46
2022/01/17 00:47:45;;;;;;;;;25.00;25.00;16.00;99.90;;;;;;5020392;28;12255;-47
2022/01/17 00:50:16;;;;;;;;;23.00;23.00;16.00;99.90;;;;;;5017418;28;11522;-45
2022/01/17 00:52:46;;;;;;;;;23.50;23.50;16.00;99.90;;;;;;5017615;28;11543;-46
2022/01/17 00:55:17;;;;;;;;;21.25;21.25;16.00;99.90;;;;;;5020267;28;11488;-44
2022/01/17 00:57:48;;;;;;;;;24.50;24.50;16.00;99.90;;;;;;5020907;28;11472;-45
2022/01/17 01:00:19;;;;;;;;;22.00;22.00;16.00;99.90;;;;;;5017359;28;11514;-48
2022/01/17 01:02:50;;;;;;;;;21.25;21.25;16.00;99.90;;;;;;5017518;28;11535;-54
2022/01/17 01:05:20;;;;;;;;;22.50;22.50;15.90;99.90;;;;;;5018225;28;12057;-47
2022/01/17 01:07:51;;;;;;;;;18.25;18.25;15.90;99.90;;;;;;5010553;28;11475;-48
2022/01/17 01:10:22;;;;;;;;;20.25;20.25;15.90;99.90;;;;;;5015157;28;11575;-44
2022/01/17 01:12:52;;;;;;;;;21.00;21.00;15.90;99.90;;;;;;5003827;28;11531;-48
2022/01/17 01:18:36;;;;;;;;;21.50;21.50;15.90;99.90;;;;;;5004459;28;11519;-47
2022/01/17 01:29:30;;;;;;;;;22.00;22.00;15.80;99.90;;;;;;5018226;28;11601;-46
2022/01/17 01:32:07;;;;;;;;;20.25;20.25;15.80;99.90;;;;;;5017909;28;12253;-45
2022/01/17 01:34:48;;;;;;;;;22.50;22.50;15.80;99.90;;;;;;5002621;28;11523;-45
2022/01/17 01:37:19;;;;;;;;;22.00;22.00;15.80;99.90;;;;;;5019215;28;12038;-47
2022/01/17 01:39:52;;;;;;;;;19.00;19.00;15.80;99.90;;;;;;5020227;28;11563;-46
2022/01/17 01:42:23;;;;;;;;;22.75;22.75;15.70;99.90;;;;;;5013662;28;11516;-47
2022/01/17 01:44:55;;;;;;;;;19.50;19.50;15.70;99.90;;;;;;5016877;28;12277;-45
2022/01/17 01:47:28;;;;;;;;;21.00;21.00;15.70;99.90;;;;;;5020748;28;11462;-45
2022/01/17 01:49:59;;;;;;;;;20.75;20.75;15.70;99.90;;;;;;5016320;28;11620;-48
2022/01/17 01:52:33;;;;;;;;;22.00;22.00;15.70;99.90;;;;;;5012974;28;11623;-44
2022/01/17 01:55:05;;;;;;;;;19.00;19.00;15.70;99.90;;;;;;5018263;28;11619;-46
2022/01/17 01:57:37;;;;;;;;;22.50;22.50;15.60;99.90;;;;;;5016301;28;11501;-46
2022/01/17 02:00:08;;;;;;;;;21.50;21.50;15.70;99.90;;;;;;5017368;28;11556;-48
2022/01/17 02:02:45;;;;;;;;;23.00;23.00;15.60;99.90;;;;;;5019778;28;11507;-48
2022/01/17 02:05:17;;;;;;;;;24.00;24.00;15.60;99.90;;;;;;5015930;28;11467;-45
2022/01/17 02:07:47;;;;;;;;;23.00;23.00;15.60;99.90;;;;;;5018071;28;11561;-47
2022/01/17 02:10:20;;;;;;;;;22.00;22.00;15.60;99.90;;;;;;5014537;28;11581;-44
2022/01/17 02:12:52;;;;;;;;;18.50;18.50;15.50;99.90;;;;;;5011299;28;11626;-47
2022/01/17 02:15:22;;;;;;;;;21.75;21.75;15.50;99.90;;;;;;5016711;28;11758;-46
2022/01/17 02:17:55;;;;;;;;;22.50;21.25;15.50;99.90;;;;;;5001392;28;12238;-48
2022/01/17 02:20:45;;;;;;;;;21.50;21.50;15.40;99.90;;;;;;5016878;28;11523;-46
2022/01/17 02:23:17;;;;;;;;;22.00;22.00;15.40;99.90;;;;;;5016654;28;12236;-47
2022/01/17 02:25:50;;;;;;;;;25.50;25.50;15.40;99.90;;;;;;5015699;28;11575;-49
2022/01/17 02:28:20;;;;;;;;;29.50;29.50;15.50;99.90;;;;;;4987829;28;11585;-48
2022/01/17 02:30:52;;;;;;;;;26.75;26.75;15.40;99.90;;;;;;5017696;28;11603;-48
2022/01/17 02:33:22;;;;;;;;;29.00;29.00;15.40;99.90;;;;;;5015563;28;11766;-46
2022/01/17 02:35:55;;;;;;;;;17.00;17.00;15.30;99.90;;;;;;5015894;28;11538;-47
2022/01/17 02:38:27;;;;;;;;;30.75;29.75;15.30;99.90;;;;;;5013524;28;11510;-45
2022/01/17 02:40:58;;;;;;;;;23.00;23.00;15.40;99.90;;;;;;5016746;28;11604;-45
2022/01/17 02:43:30;;;;;;;;;18.75;17.50;15.30;99.90;;;;;;5016393;28;11479;-45
2022/01/17 02:48:38;;;;;;;;;24.50;24.50;15.20;99.90;;;;;;5017856;28;11554;-44
2022/01/17 02:51:11;;;;;;;;;25.75;25.75;15.20;99.90;;;;;;5015184;28;12334;-43
2022/01/17 02:53:45;;;;;;;;;24.00;24.00;15.20;99.90;;;;;;4993604;28;11605;-45
2022/01/17 02:56:17;;;;;;;;;27.00;27.00;15.20;99.90;;;;;;5012580;28;11559;-43
2022/01/17 02:58:49;;;;;;;;;31.25;30.75;15.20;99.90;;;;;;4999020;28;11586;-44
2022/01/17 03:01:25;;;;;;;;;28.75;28.75;15.10;99.90;;;;;;5014172;28;11560;-49
2022/01/17 03:03:57;;;;;;;;;30.25;30.25;15.20;99.90;;;;;;5016185;28;11563;-47
2022/01/17 03:06:29;;;;;;;;;27.25;27.25;15.20;99.90;;;;;;4989931;28;11533;-48
2022/01/17 03:09:01;;;;;;;;;29.00;29.00;15.10;99.90;;;;;;5019806;28;11725;-45
2022/01/17 03:11:31;;;;;;;;;32.50;31.50;15.10;99.90;;;;;;5014305;28;11688;-44
2022/01/17 03:14:01;;;;;;;;;28.50;28.25;15.00;99.90;;;;;;5013631;28;11569;-43
2022/01/17 03:16:34;;;;;;;;;30.25;30.25;15.00;99.90;;;;;;5012627;28;12280;-45
2022/01/17 03:19:04;;;;;;;;;33.75;31.00;15.00;99.90;;;;;;5015483;28;11578;-46
2022/01/17 03:21:35;;;;;;;;;33.00;32.00;15.00;99.90;;;;;;5016338;28;11615;-44
2022/01/17 03:24:07;;;;;;;;;41.25;37.00;15.00;99.90;;;;;;5015286;28;11756;-45
2022/01/17 03:26:38;;;;;;;;;42.50;37.75;15.00;99.90;;;;;;5013571;28;11598;-46
2022/01/17 03:29:10;;;;;;;;;47.00;40.75;15.00;99.90;;;;;;5012228;28;11632;-46
2022/01/17 03:31:40;;;;;;;;;48.25;41.00;14.90;99.90;;;;;;5022495;28;11615;-46
2022/01/17 03:34:12;;;;;;;;;39.25;36.00;14.90;99.90;;;;;;5018553;28;11488;-46
2022/01/17 03:36:44;;;;;;;;;40.00;36.00;14.90;99.90;;;;;;5022425;28;11561;-46
2022/01/17 03:39:15;;;;;;;;;38.75;35.75;14.90;99.90;;;;;;5020220;28;11579;-47
2022/01/17 03:41:46;;;;;;;;;38.25;35.25;14.90;99.90;;;;;;5022627;28;11570;-45
2022/01/17 03:44:18;;;;;;;;;37.50;34.50;14.80;99.90;;;;;;5015584;28;11544;-46
2022/01/17 03:46:48;;;;;;;;;41.50;35.25;14.80;99.90;;;;;;5000700;28;11052;-46
2022/01/17 03:49:19;;;;;;;;;41.75;37.00;14.80;99.90;;;;;;5021367;28;12114;-47
2022/01/17 03:51:49;;;;;;;;;40.25;36.00;14.70;99.90;;;;;;5014992;28;11589;-47
2022/01/17 03:54:20;;;;;;;;;46.75;40.75;14.70;99.90;;;;;;5020452;28;11568;-47
2022/01/17 03:56:52;;;;;;;;;49.50;42.25;14.70;99.90;;;;;;5014821;28;11574;-48
2022/01/17 03:59:23;;;;;;;;;50.75;43.50;14.70;99.90;;;;;;5002967;28;11697;-49
2022/01/17 04:01:55;;;;;;;;;45.75;38.75;14.70;99.90;;;;;;5016536;28;11686;-44
2022/01/17 04:04:24;;;;;;;;;43.50;38.00;14.70;99.90;;;;;;5022001;28;11573;-45
2022/01/17 04:06:56;;;;;;;;;39.75;36.00;14.60;99.90;;;;;;5018670;28;11592;-46
2022/01/17 04:09:26;;;;;;;;;39.50;35.75;14.60;99.90;;;;;;5004028;28;11606;-44
2022/01/17 04:11:56;;;;;;;;;35.50;33.50;14.60;99.90;;;;;;4984292;28;11643;-46
2022/01/17 04:14:27;;;;;;;;;36.25;34.00;14.70;99.90;;;;;;5018952;28;11603;-45
2022/01/17 04:16:58;;;;;;;;;33.50;32.50;14.70;99.90;;;;;;5018517;28;11774;-45
2022/01/17 04:19:31;;;;;;;;;35.50;33.25;14.60;99.90;;;;;;5019419;28;11543;-46
2022/01/17 04:22:02;;;;;;;;;30.50;30.50;14.60;99.90;;;;;;5018932;28;11565;-45
2022/01/17 04:24:32;;;;;;;;;30.00;29.00;14.60;99.90;;;;;;5019300;28;11613;-46
2022/01/17 04:27:03;;;;;;;;;29.25;29.25;14.60;99.90;;;;;;5017585;28;12104;-47
2022/01/17 04:29:35;;;;;;;;;30.75;30.75;14.60;99.90;;;;;;5017192;28;11639;-45
2022/01/17 04:32:06;;;;;;;;;29.75;29.75;14.60;99.90;;;;;;5017198;28;11564;-44
2022/01/17 04:34:36;;;;;;;;;31.50;31.00;14.60;99.90;;;;;;5018408;28;11552;-48
2022/01/17 04:37:08;;;;;;;;;29.75;29.75;14.50;99.90;;;;;;5018433;28;11593;-47
2022/01/17 04:39:39;;;;;;;;;32.75;31.75;14.50;99.90;;;;;;5017625;28;11512;-47
2022/01/17 04:42:12;;;;;;;;;31.25;30.75;14.50;99.90;;;;;;5018364;28;11787;-46
2022/01/17 04:47:36;;;;;;;;;34.00;31.75;14.50;99.90;;;;;;5015572;28;11625;-46
2022/01/17 04:50:14;;;;;;;;;32.75;31.75;14.50;99.90;;;;;;5018478;28;11629;-48
2022/01/17 04:52:46;;;;;;;;;35.75;33.50;14.40;99.90;;;;;;5000524;28;11588;-44
2022/01/17 04:55:20;;;;;;;;;34.75;30.75;14.50;99.90;;;;;;5017854;28;11669;-46
2022/01/17 04:57:51;;;;;;;;;29.50;29.50;14.50;99.90;;;;;;4998173;28;11536;-44
2022/01/17 05:00:24;;;;;;;;;27.25;25.25;14.50;99.90;;;;;;5017302;28;11747;-50
2022/01/17 05:02:55;;;;;;;;;33.75;32.50;14.40;99.90;;;;;;4985206;28;11541;-45
2022/01/17 05:05:28;;;;;;;;;34.25;33.25;14.40;99.90;;;;;;5016331;28;11587;-46
2022/01/17 05:07:58;;;;;;;;;31.25;31.00;14.40;99.90;;;;;;5017044;28;11559;-44
2022/01/17 05:10:29;;;;;;;;;29.00;29.00;14.40;99.90;;;;;;5017574;28;11612;-43
2022/01/17 05:13:00;;;;;;;;;35.50;33.75;14.40;99.90;;;;;;5020245;28;11524;-46
2022/01/17 05:15:34;;;;;;;;;31.75;31.00;14.40;99.90;;;;;;5017346;28;11578;-44
2022/01/17 05:20:44;;;;;;;;;37.00;34.50;14.20;99.90;;;;;;5015850;28;11566;-47
2022/01/17 05:23:14;;;;;;;;;33.25;32.00;14.20;99.90;;;;;;5017986;28;11571;-46
2022/01/17 05:25:43;;;;;;;;;33.00;31.75;14.20;99.90;;;;;;5016398;28;12374;-45
2022/01/17 05:28:14;;;;;;;;;38.50;34.00;14.20;99.90;;;;;;5018398;28;11578;-44
2022/01/17 05:30:45;;;;;;;;;33.25;31.75;14.10;99.90;;;;;;5019418;28;12248;-47
2022/01/17 05:33:16;;;;;;;;;32.75;31.25;14.10;99.90;;;;;;5012120;28;12301;-46
2022/01/17 05:35:45;;;;;;;;;38.00;34.75;14.10;99.90;;;;;;5016313;28;11549;-46
2022/01/17 05:38:16;;;;;;;;;36.25;34.00;14.10;99.90;;;;;;5012781;28;12882;-45
2022/01/17 05:40:47;;;;;;;;;31.25;31.00;14.00;99.90;;;;;;5010354;28;11716;-47
2022/01/17 05:43:19;;;;;;;;;32.00;30.00;14.00;99.90;;;;;;5016471;28;11640;-46
2022/01/17 05:45:49;;;;;;;;;34.50;32.75;14.00;99.90;;;;;;5009745;28;11535;-49
2022/01/17 05:48:20;;;;;;;;;38.75;35.50;14.00;99.90;;;;;;5011424;28;11632;-45
2022/01/17 05:50:51;;;;;;;;;31.00;30.75;14.00;99.90;;;;;;5012550;28;12889;-43
2022/01/17 05:53:23;;;;;;;;;35.00;34.00;14.00;99.90;;;;;;4993598;28;11569;-47
2022/01/17 05:55:54;;;;;;;;;29.00;29.00;14.00;99.90;;;;;;5011233;28;11576;-46
2022/01/17 05:58:25;;;;;;;;;34.50;33.00;14.00;99.90;;;;;;4999694;28;11706;-48
2022/01/17 06:00:56;;;;;;;;;39.50;35.25;14.00;99.90;;;;;;5015380;28;11605;-46
2022/01/17 06:03:31;;;;;;;;;35.25;33.00;13.90;99.90;;;;;;5014589;28;11602;-45
2022/01/17 06:06:03;;;;;;;;;41.25;36.00;13.90;99.90;;;;;;5012347;28;11568;-45
2022/01/17 06:08:34;;;;;;;;;29.75;29.75;13.90;99.90;;;;;;5008123;28;11725;-43
2022/01/17 06:11:05;;;;;;;;;28.50;28.50;13.90;99.90;;;;;;5013793;28;11572;-43
2022/01/17 06:13:36;;;;;;;;;37.25;34.50;13.90;99.90;;;;;;5010199;28;11527;-45
2022/01/17 06:16:07;;;;;;;;;38.00;35.25;13.90;99.90;;;;;;5011105;28;11525;-44
2022/01/17 06:18:37;;;;;;;;;39.00;35.00;13.90;99.90;;;;;;5008921;28;11573;-43
2022/01/17 06:21:08;;;;;;;;;38.75;35.00;13.90;99.90;;;;;;5010238;28;12314;-45
2022/01/17 06:23:42;;;;;;;;;43.25;38.50;13.90;99.90;;;;;;5007860;28;12250;-48
2022/01/17 06:26:16;;;;;;;;;43.50;37.75;13.90;99.90;;;;;;5009313;28;11637;-42
2022/01/17 06:28:46;;;;;;;;;40.50;37.00;13.90;99.90;;;;;;5005181;28;11614;-43
2022/01/17 06:31:17;;;;;;;;;42.75;37.00;13.90;99.90;;;;;;5007933;28;11523;-44
2022/01/17 06:33:48;;;;;;;;;40.25;35.50;13.90;99.90;;;;;;5012255;28;11538;-42
2022/01/17 06:36:18;;;;;;;;;40.50;37.00;13.90;99.90;;;;;;5007801;28;11612;-43
2022/01/17 06:38:50;;;;;;;;;41.50;36.50;13.90;99.90;;;;;;5013962;28;11597;-42
2022/01/17 06:41:22;;;;;;;;;39.25;36.25;13.80;99.90;;;;;;5012539;28;11534;-44
2022/01/17 06:43:53;;;;;;;;;35.25;33.75;13.80;99.90;;;;;;5015912;28;11565;-43
2022/01/17 06:46:24;;;;;;;;;41.50;36.50;13.80;99.90;;;;;;5010840;28;11635;-44
2022/01/17 06:48:55;;;;;;;;;42.50;38.25;13.80;99.90;;;;;;5017134;28;11594;-45
2022/01/17 06:51:27;;;;;;;;;43.50;37.50;13.70;99.90;;;;;;5014070;28;11791;-45
2022/01/17 06:53:58;;;;;;;;;42.75;37.50;13.70;99.90;;;;;;5017681;28;12344;-44
2022/01/17 06:56:28;;;;;;;;;38.00;35.25;13.60;99.90;;;;;;5009787;28;11569;-42
2022/01/17 06:59:02;;;;;;;;;41.00;36.25;13.60;99.90;;;;;;5015534;28;12336;-42
2022/01/17 07:01:38;;;;;;;;;42.25;37.50;13.70;99.90;;;;;;5011740;28;11527;-44
2022/01/17 07:04:14;;;;;;;;;45.00;39.50;13.70;99.90;;;;;;5023836;28;11582;-44
2022/01/17 07:06:44;;;;;;;;;44.50;38.75;13.70;99.90;;;;;;5003511;28;11540;-43
2022/01/17 07:09:19;;;;;;;;;39.75;36.75;13.70;99.90;;;;;;5018462;28;11561;-44
2022/01/17 07:11:50;;;;;;;;;41.00;37.25;13.70;99.90;;;;;;5020903;28;11604;-42
2022/01/17 07:14:21;;;;;;;;;47.25;40.75;13.70;99.90;;;;;;5022882;28;11561;-42
2022/01/17 07:16:53;;;;;;;;;47.25;40.25;13.70;99.90;;;;;;5021733;28;11693;-43
2022/01/17 07:19:23;;;;;;;;;46.25;40.25;13.60;99.90;;;;;;5017172;28;11593;-42
2022/01/17 07:21:54;;;;;;;;;44.25;39.00;13.60;99.90;;;;;;5017006;28;11686;-42
2022/01/17 07:24:47;;;;;;;;;47.25;40.00;13.60;99.90;;;;;;5019204;28;11673;-44
2022/01/17 07:27:17;;;;;;;;;45.75;40.25;13.60;99.90;;;;;;5017747;28;11791;-45
2022/01/17 07:29:49;;;;;;;;;45.50;40.00;13.50;99.90;;;;;;4982428;28;12067;-50
2022/01/17 07:32:20;;;;;;;;;43.00;38.00;13.60;99.90;;;;;;5014629;28;11513;-45
2022/01/17 07:34:52;;;;;;;;;47.00;40.50;13.60;99.90;;;;;;5005454;28;11683;-47
2022/01/17 07:37:23;;;;;;;;;46.25;39.25;13.50;99.90;;;;;;5017715;28;11565;-45
2022/01/17 07:39:53;;;;;;;;;50.25;43.00;13.50;99.90;;;;;;5021230;28;11537;-48
2022/01/17 07:42:25;;;;;;;;;49.50;41.25;13.40;99.90;;;;;;5020058;28;11692;-44
2022/01/17 07:44:58;;;;;;;;;43.00;38.50;13.40;99.90;;;;;;5020333;28;11646;-45
2022/01/17 07:48:07;;;;;;;;;44.50;39.25;13.40;99.90;;;;;;5019099;28;11609;-44
2022/01/17 07:50:37;;;;;;;;;51.25;43.75;13.30;99.90;;;;;;5020637;28;11639;-44
2022/01/17 07:53:09;;;;;;;;;49.00;42.25;13.40;99.90;;;;;;5009593;28;11537;-43
2022/01/17 07:55:39;;;;;;;;;45.00;38.75;13.40;99.90;;;;;;5016374;28;11562;-44
2022/01/17 07:58:09;;;;;;;;;48.75;40.25;13.30;99.90;;;;;;5023032;28;11717;-45
2022/01/17 08:00:40;;;;;;;;;41.25;37.00;13.40;99.90;;;;;;5017787;28;11710;-45
2022/01/17 08:03:10;;;;;;;;;47.50;41.00;13.30;99.90;;;;;;5018174;28;11678;-43
2022/01/17 08:05:41;;;;;;;;;47.00;39.25;13.20;99.90;;;;;;5015805;28;11584;-43
2022/01/17 08:08:15;;;;;;;;;41.25;37.25;13.20;99.90;;;;;;5015632;28;12732;-43
2022/01/17 08:10:45;;;;;;;;;49.00;41.25;13.30;99.90;;;;;;5016833;28;12362;-44
2022/01/17 08:13:18;;;;;;;;;48.00;41.25;13.30;99.90;;;;;;5012994;28;11597;-44
2022/01/17 08:15:55;;;;;;;;;46.00;40.25;13.10;99.90;;;;;;5013523;28;11563;-44
2022/01/17 08:18:25;;;;;;;;;48.75;41.75;13.10;99.90;;;;;;5014885;28;11557;-46
2022/01/17 08:20:56;;;;;;;;;44.75;39.00;13.10;99.90;;;;;;5017753;28;11545;-44
2022/01/17 08:23:27;;;;;;;;;42.50;37.50;13.10;99.90;;;;;;5019030;28;11603;-43
2022/01/17 08:25:57;;;;;;;;;47.75;41.00;13.00;99.90;;;;;;5015201;28;11569;-43
2022/01/17 08:28:28;;;;;;;;;37.50;35.00;13.10;99.90;;;;;;5016661;28;11528;-44
2022/01/17 08:30:59;;;;;;;;;46.00;39.75;13.10;99.90;;;;;;4999419;28;11755;-47
2022/01/17 08:33:50;;;;;;;;;41.75;37.75;13.10;99.90;;;;;;5014178;28;11588;-42
2022/01/17 08:36:22;;;;;;;;;44.25;38.25;13.20;99.90;;;;;;5018061;28;11659;-42
2022/01/17 08:38:53;;;;;;;;;48.50;42.50;13.10;99.90;;;;;;5019310;28;11658;-45
2022/01/17 08:41:23;;;;;;;;;47.75;41.00;13.10;99.90;;;;;;5015000;28;11613;-44
2022/01/17 08:43:54;;;;;;;;;48.00;41.25;13.10;99.90;;;;;;5001489;28;12074;-43
2022/01/17 08:46:25;;;;;;;;;45.50;39.25;13.10;99.90;;;;;;5012874;28;11551;-44
2022/01/17 08:48:55;;;;;;;;;46.50;40.00;13.10;99.90;;;;;;5018317;28;11557;-45
2022/01/17 08:51:26;;;;;;;;;43.75;38.25;13.10;99.90;;;;;;5012434;28;11610;-55
2022/01/17 08:53:57;;;;;;;;;48.00;41.75;13.10;99.90;;;;;;4985133;28;11697;-51
2022/01/17 08:56:30;;;;;;;;;47.75;41.00;13.10;99.90;;;;;;5013560;28;11695;-47
2022/01/17 08:59:03;;;;;;;;;40.25;35.00;13.10;99.90;;;;;;5019355;28;11537;-43
2022/01/17 09:01:33;;;;;;;;;46.00;40.50;13.10;99.90;;;;;;5013276;28;11513;-43
2022/01/17 09:04:04;;;;;;;;;50.50;43.50;13.00;99.90;;;;;;5018494;28;11684;-42
2022/01/17 09:06:35;;;;;;;;;40.75;36.75;13.00;99.90;;;;;;5014009;28;11598;-46
2022/01/17 09:09:05;;;;;;;;;44.75;38.75;13.00;99.90;;;;;;5015081;28;11515;-45
2022/01/17 09:11:36;;;;;;;;;45.25;39.50;12.90;99.90;;;;;;5012543;28;11610;-44
2022/01/17 09:14:07;;;;;;;;;47.50;39.75;12.90;99.90;;;;;;5013691;28;11737;-44
2022/01/17 09:16:38;;;;;;;;;50.25;42.50;12.90;99.90;;;;;;5018808;28;11576;-44
2022/01/17 09:19:09;;;;;;;;;47.50;41.00;12.90;99.90;;;;;;5009901;28;11606;-44
2022/01/17 09:21:42;;;;;;;;;48.50;41.00;12.90;99.90;;;;;;5012298;28;12302;-43
2022/01/17 09:24:13;;;;;;;;;51.50;43.00;12.80;99.90;;;;;;5013603;28;11711;-44
2022/01/17 09:26:46;;;;;;;;;43.75;38.50;12.80;99.90;;;;;;5015418;28;11597;-44
2022/01/17 09:29:17;;;;;;;;;45.75;40.50;12.90;99.90;;;;;;5014651;28;11549;-45
2022/01/17 09:31:48;;;;;;;;;44.25;39.50;12.80;99.90;;;;;;5016657;28;11870;-43
2022/01/17 09:34:19;;;;;;;;;47.25;41.50;12.80;99.90;;;;;;5013804;28;11540;-47
2022/01/17 09:36:49;;;;;;;;;45.50;40.25;12.80;99.90;;;;;;5013654;28;11614;-43
2022/01/17 09:39:21;;;;;;;;;48.25;41.75;12.70;99.90;;;;;;4994148;28;11671;-44
2022/01/17 09:41:52;;;;;;;;;49.75;42.75;12.70;99.90;;;;;;4999307;28;11628;-43
2022/01/17 09:44:24;;;;;;;;;47.00;41.00;12.60;99.90;;;;;;5013505;28;11586;-47
2022/01/17 09:46:56;;;;;;;;;49.25;41.75;12.60;99.90;;;;;;4999244;28;11567;-47
2022/01/17 09:52:15;;;;;;;;;49.00;42.50;12.50;99.90;;;;;;5015704;28;12321;-43
2022/01/17 09:54:47;;;;;;;;;49.00;41.25;12.50;99.90;;;;;;5014356;28;11561;-46
2022/01/17 09:57:19;;;;;;;;;46.00;40.50;12.50;99.90;;;;;;5012874;28;11579;-46
2022/01/17 09:59:50;;;;;;;;;40.00;36.50;12.50;99.90;;;;;;5012973;28;11650;-44
2022/01/17 10:02:20;;;;;;;;;54.25;45.50;12.60;99.90;;;;;;5016049;28;11570;-45
2022/01/17 10:04:51;;;;;;;;;52.67;43.33;12.70;99.90;;;;;;5015119;28;11586;-47
2022/01/17 10:07:24;;;;;;;;;43.00;38.75;12.70;99.90;;;;;;5014213;28;11680;-44
2022/01/17 10:09:59;;;;;;;;;47.25;41.00;12.70;99.90;;;;;;5015007;28;11593;-42
2022/01/17 10:12:29;;;;;;;;;48.50;41.50;12.60;99.90;;;;;;5014567;28;11603;-45
2022/01/17 10:15:05;;;;;;;;;47.00;41.00;12.60;99.90;;;;;;5017248;28;11540;-43
2022/01/17 10:17:47;;;;;;;;;46.75;41.00;12.50;99.90;;;;;;5012894;28;11583;-44
2022/01/17 10:20:18;;;;;;;;;48.25;40.75;12.50;99.90;;;;;;5014304;28;11592;-42
2022/01/17 10:23:16;;;;;;;;;42.00;38.00;12.50;99.90;;;;;;5014609;28;11691;-43
2022/01/17 10:26:09;;;;;;;;;39.50;35.75;12.50;99.90;;;;;;5012072;28;11585;-45
2022/01/17 10:37:15;;;;;;;;;38.75;35.75;12.50;99.90;;;;;;5014251;28;11565;-43
2022/01/17 10:40:07;;;;;;;;;45.50;40.00;12.50;99.90;;;;;;5015327;28;11580;-43
2022/01/17 10:42:46;;;;;;;;;39.25;36.00;12.40;99.90;;;;;;5015226;28;8896;-42
2022/01/17 10:45:20;;;;;;;;;41.25;37.50;12.40;99.90;;;;;;5014512;28;11537;-42
2022/01/17 10:47:57;;;;;;;;;37.00;35.00;12.40;99.90;;;;;;5014898;28;11617;-44
2022/01/17 10:50:49;;;;;;;;;45.00;38.75;12.40;99.90;;;;;;5013770;28;11573;-44
2022/01/17 10:53:19;;;;;;;;;37.75;33.75;12.40;99.90;;;;;;5013911;28;11636;-42
2022/01/17 10:55:54;;;;;;;;;40.00;36.75;12.30;99.90;;;;;;5014558;28;11528;-43
2022/01/17 10:58:28;;;;;;;;;42.25;38.00;12.20;99.90;;;;;;5012353;28;11557;-44
2022/01/17 11:01:03;;;;;;;;;45.50;40.00;12.10;99.90;;;;;;4998008;28;11561;-43
2022/01/17 11:03:34;;;;;;;;;52.00;44.00;12.10;99.90;;;;;;5011439;28;11616;-44
2022/01/17 11:06:09;;;;;;;;;46.00;40.25;12.10;99.90;;;;;;5012145;28;8889;-43
2022/01/17 11:08:41;;;;;;;;;42.00;38.25;12.10;99.90;;;;;;5018339;28;11584;-41
2022/01/17 11:11:13;;;;;;;;;47.75;41.25;12.00;99.90;;;;;;5014782;28;11539;-42
2022/01/17 11:13:48;;;;;;;;;46.25;39.00;12.00;99.90;;;;;;5011994;28;11525;-43
2022/01/17 11:16:21;;;;;;;;;46.50;39.25;12.00;99.90;;;;;;5012984;28;11950;-42
2022/01/17 11:19:01;;;;;;;;;45.33;39.00;12.00;99.90;;;;;;5012656;28;11538;-45
2022/01/17 11:21:32;;;;;;;;;40.50;36.75;12.00;99.90;;;;;;5010455;28;11589;-42
2022/01/17 11:24:04;;;;;;;;;41.00;38.00;11.90;99.90;;;;;;5012629;28;11602;-42
2022/01/17 11:26:35;;;;;;;;;30.75;30.50;11.90;99.90;;;;;;5013398;28;11595;-45
2022/01/17 11:29:08;;;;;;;;;38.00;36.00;11.90;99.90;;;;;;4997043;28;11556;-45
2022/01/17 11:31:38;;;;;;;;;43.33;38.33;11.90;99.90;;;;;;5014221;28;11758;-43
2022/01/17 11:34:13;;;;;;;;;46.00;40.33;12.00;99.90;;;;;;5014831;28;8849;-42
2022/01/17 11:36:44;;;;;;;;;42.00;38.00;12.00;99.90;;;;;;5014738;28;8864;-41
2022/01/17 11:39:16;;;;;;;;;48.33;41.67;11.90;99.90;;;;;;5013511;28;8893;-44
2022/01/17 11:41:51;;;;;;;;;49.33;43.00;11.90;99.90;;;;;;5011343;28;8886;-42
2022/01/17 11:44:34;;;;;;;;;50.33;43.00;11.90;99.90;;;;;;5018040;28;9004;-43
2022/01/17 11:47:11;;;;;;;;;49.67;43.33;11.90;99.90;;;;;;5011062;28;8902;-43
2022/01/17 11:49:45;;;;;;;;;51.67;43.67;11.90;99.90;;;;;;5018213;28;8861;-44
2022/01/17 11:52:31;;;;;;;;;52.00;44.00;11.70;99.90;;;;;;5016439;28;8857;-43
2022/01/17 11:55:01;;;;;;;;;55.67;47.00;11.70;99.90;;;;;;5018211;28;8863;-44
2022/01/17 11:57:33;;;;;;;;;56.00;48.00;11.70;99.90;;;;;;5015758;28;9561;-44
2022/01/17 12:00:07;;;;;;;;;55.00;47.00;11.60;99.90;;;;;;5019406;28;8841;-42
2022/01/17 12:02:40;;;;;;;;;56.33;47.67;11.60;99.90;;;;;;5020480;28;10545;-46
2022/01/17 12:05:11;;;;;;;;;55.00;47.00;11.50;99.90;;;;;;5015514;28;8861;-43
2022/01/17 12:07:42;;;;;;;;;50.33;43.33;11.50;99.90;;;;;;5019242;28;8814;-43
2022/01/17 12:10:15;;;;;;;;;58.00;49.33;11.40;99.90;;;;;;5018783;28;8913;-48
2022/01/17 12:13:15;;;;;;;;;54.00;46.00;11.40;99.90;;;;;;5013191;28;8849;-43
2022/01/17 12:16:10;;;;;;;;;40.33;36.67;11.50;99.90;;;;;;5003745;28;8857;-42
2022/01/17 12:18:52;;;;;;;;;49.33;42.67;11.60;99.90;;;;;;5019831;28;8842;-42
2022/01/17 12:21:28;;;;;;;;;49.67;42.67;11.50;99.90;;;;;;5014643;28;8866;-44
2022/01/17 12:24:26;;;;;;;;;44.00;39.00;11.40;99.90;;;;;;5018417;28;8848;-43
2022/01/17 12:26:57;;;;;;;;;50.00;43.00;11.30;99.90;;;;;;5013379;28;8858;-43
2022/01/17 12:29:36;;;;;;;;;46.00;40.67;11.30;99.90;;;;;;5015441;28;8877;-43
2022/01/17 12:32:22;;;;;;;;;43.67;39.33;11.40;99.90;;;;;;5009633;28;8826;-45
2022/01/17 12:35:05;;;;;;;;;48.67;42.00;11.50;99.90;;;;;;5014155;28;9622;-41
2022/01/17 12:37:44;;;;;;;;;41.33;38.33;11.50;99.90;;;;;;5012101;28;8878;-43
2022/01/17 12:40:20;;;;;;;;;35.00;34.00;11.50;99.90;;;;;;5016005;28;8852;-44
2022/01/17 12:42:55;;;;;;;;;42.00;38.67;11.50;99.90;;;;;;5020341;28;8865;-42
2022/01/17 12:45:27;;;;;;;;;45.67;40.33;11.50;99.90;;;;;;5012860;28;9532;-44
2022/01/17 12:47:59;;;;;;;;;40.00;36.67;11.50;99.90;;;;;;5016396;28;8965;-44
2022/01/17 12:50:32;;;;;;;;;46.00;40.33;11.50;99.90;;;;;;4997456;28;8834;-43
2022/01/17 12:53:05;;;;;;;;;51.00;42.00;11.40;99.90;;;;;;5017421;28;8846;-44
2022/01/17 12:55:52;;;;;;;;;33.67;32.33;11.40;99.90;;;;;;5014315;28;8873;-48
2022/01/17 12:58:26;;;;;;;;;40.67;37.00;11.40;99.90;;;;;;5013460;28;8879;-45
2022/01/17 13:01:01;;;;;;;;;50.00;43.00;11.40;99.90;;;;;;5014953;28;8949;-45
2022/01/17 13:03:36;;;;;;;;;46.67;40.67;11.40;99.90;;;;;;5015955;28;8837;-43
2022/01/17 13:06:17;;;;;;;;;47.67;41.00;11.40;99.90;;;;;;5012044;28;8880;-46
2022/01/17 13:08:49;;;;;;;;;47.67;42.00;11.40;99.90;;;;;;5016984;28;8871;-47
2022/01/17 13:11:22;;;;;;;;;48.00;40.33;11.40;99.90;;;;;;5013521;28;8888;-45
2022/01/17 13:14:01;;;;;;;;;50.33;43.67;11.50;99.90;;;;;;5011669;28;8984;-43
2022/01/17 13:16:35;;;;;;;;;47.00;41.67;11.50;99.90;;;;;;5014702;28;8959;-44
2022/01/17 13:19:09;;;;;;;;;43.67;38.67;11.50;99.90;;;;;;5014481;28;8857;-45
2022/01/17 13:21:44;;;;;;;;;48.67;42.67;11.50;99.90;;;;;;5015018;28;8838;-45
2022/01/17 13:24:39;;;;;;;;;42.00;38.33;11.50;99.90;;;;;;5016387;28;8889;-44
2022/01/17 13:27:16;;;;;;;;;47.00;41.67;11.50;99.90;;;;;;5013201;28;8838;-44
2022/01/17 13:29:48;;;;;;;;;47.67;42.00;11.40;99.90;;;;;;5020194;28;8836;-44